sensor_id;sensor_type;location;lat;lon;timestamp;P1;durP1;ratioP1;P2;durP2;ratioP2
77055;SDS011;67471;44.918;8.614;2023-02-11T00:02:52;39.00;;;19.88;;
77055;SDS011;67471;44.918;8.614;2023-02-11T00:05:57;40.88;;;18.35;;
77055;SDS011;67471;44.918;8.614;2023-02-11T00:09:05;37.83;;;18.98;;
77055;SDS011;67471;44.918;8.614;2023-02-11T00:12:08;38.20;;;18.77;;
77055;SDS011;67471;44.918;8.614;2023-02-11T00:15:12;41.47;;;19.30;;
77055;SDS011;67471;44.918;8.614;2023-02-11T00:18:16;41.15;;;18.27;;
77055;SDS011;67471;44.918;8.614;2023-02-11T00:21:21;33.90;;;16.48;;
77055;SDS011;67471;44.918;8.614;2023-02-11T00:24:26;40.70;;;17.38;;
77055;SDS011;67471;44.918;8.614;2023-02-11T00:27:32;33.97;;;17.17;;
77055;SDS011;67471;44.918;8.614;2023-02-11T00:30:36;39.25;;;18.38;;
77055;SDS011;67471;44.918;8.614;2023-02-11T00:33:40;41.95;;;18.58;;
77055;SDS011;67471;44.918;8.614;2023-02-11T00:36:44;37.17;;;18.08;;
77055;SDS011;67471;44.918;8.614;2023-02-11T00:39:48;36.63;;;17.30;;
77055;SDS011;67471;44.918;8.614;2023-02-11T00:42:52;35.17;;;17.73;;
77055;SDS011;67471;44.918;8.614;2023-02-11T00:45:56;44.83;;;19.33;;
77055;SDS011;67471;44.918;8.614;2023-02-11T00:49:00;34.72;;;18.10;;
77055;SDS011;67471;44.918;8.614;2023-02-11T00:52:04;32.95;;;17.58;;
77055;SDS011;67471;44.918;8.614;2023-02-11T00:55:08;35.90;;;16.63;;
77055;SDS011;67471;44.918;8.614;2023-02-11T00:58:11;32.10;;;16.85;;
77055;SDS011;67471;44.918;8.614;2023-02-11T01:01:15;36.25;;;16.65;;
77055;SDS011;67471;44.918;8.614;2023-02-11T01:04:19;39.22;;;17.00;;
77055;SDS011;67471;44.918;8.614;2023-02-11T01:07:23;36.47;;;17.88;;
77055;SDS011;67471;44.918;8.614;2023-02-11T01:10:28;36.95;;;17.73;;
77055;SDS011;67471;44.918;8.614;2023-02-11T01:13:32;37.80;;;17.80;;
77055;SDS011;67471;44.918;8.614;2023-02-11T01:16:38;35.22;;;16.92;;
77055;SDS011;67471;44.918;8.614;2023-02-11T01:19:41;35.45;;;18.05;;
77055;SDS011;67471;44.918;8.614;2023-02-11T01:22:46;39.67;;;18.33;;
77055;SDS011;67471;44.918;8.614;2023-02-11T01:25:52;35.00;;;17.85;;
77055;SDS011;67471;44.918;8.614;2023-02-11T01:28:56;41.67;;;17.38;;
77055;SDS011;67471;44.918;8.614;2023-02-11T01:32:04;43.10;;;18.48;;
77055;SDS011;67471;44.918;8.614;2023-02-11T01:35:07;40.33;;;18.83;;
77055;SDS011;67471;44.918;8.614;2023-02-11T01:38:13;38.70;;;18.10;;
77055;SDS011;67471;44.918;8.614;2023-02-11T01:41:19;43.25;;;18.73;;
77055;SDS011;67471;44.918;8.614;2023-02-11T01:47:29;41.20;;;17.38;;
77055;SDS011;67471;44.918;8.614;2023-02-11T01:50:33;45.40;;;17.95;;
77055;SDS011;67471;44.918;8.614;2023-02-11T01:53:36;35.22;;;17.98;;
77055;SDS011;67471;44.918;8.614;2023-02-11T01:57:00;39.03;;;17.17;;
77055;SDS011;67471;44.918;8.614;2023-02-11T02:00:24;40.75;;;17.58;;
77055;SDS011;67471;44.918;8.614;2023-02-11T02:03:32;37.95;;;16.13;;
77055;SDS011;67471;44.918;8.614;2023-02-11T02:06:42;39.03;;;19.13;;
77055;SDS011;67471;44.918;8.614;2023-02-11T02:10:11;35.88;;;16.42;;
77055;SDS011;67471;44.918;8.614;2023-02-11T02:13:18;32.63;;;17.33;;
77055;SDS011;67471;44.918;8.614;2023-02-11T02:16:21;33.67;;;17.92;;
77055;SDS011;67471;44.918;8.614;2023-02-11T02:19:54;32.03;;;16.65;;
77055;SDS011;67471;44.918;8.614;2023-02-11T02:26:37;41.28;;;18.02;;
77055;SDS011;67471;44.918;8.614;2023-02-11T02:36:47;33.30;;;17.13;;
77055;SDS011;67471;44.918;8.614;2023-02-11T02:40:02;33.28;;;18.10;;
77055;SDS011;67471;44.918;8.614;2023-02-11T02:46:15;42.75;;;17.20;;
77055;SDS011;67471;44.918;8.614;2023-02-11T02:49:24;38.83;;;17.73;;
77055;SDS011;67471;44.918;8.614;2023-02-11T02:55:50;39.30;;;18.45;;
77055;SDS011;67471;44.918;8.614;2023-02-11T02:59:15;43.28;;;17.95;;
77055;SDS011;67471;44.918;8.614;2023-02-11T03:02:39;31.92;;;15.98;;
77055;SDS011;67471;44.918;8.614;2023-02-11T03:09:35;43.25;;;17.88;;
77055;SDS011;67471;44.918;8.614;2023-02-11T03:12:39;42.83;;;19.20;;
77055;SDS011;67471;44.918;8.614;2023-02-11T03:15:48;32.45;;;17.35;;
77055;SDS011;67471;44.918;8.614;2023-02-11T03:22:31;37.15;;;17.55;;
77055;SDS011;67471;44.918;8.614;2023-02-11T03:25:47;33.90;;;17.23;;
77055;SDS011;67471;44.918;8.614;2023-02-11T03:28:55;31.75;;;17.10;;
77055;SDS011;67471;44.918;8.614;2023-02-11T03:32:03;38.55;;;16.95;;
77055;SDS011;67471;44.918;8.614;2023-02-11T03:38:32;48.45;;;18.95;;
77055;SDS011;67471;44.918;8.614;2023-02-11T03:41:40;40.05;;;16.95;;
77055;SDS011;67471;44.918;8.614;2023-02-11T03:44:47;36.47;;;16.52;;
77055;SDS011;67471;44.918;8.614;2023-02-11T03:48:01;38.50;;;17.38;;
77055;SDS011;67471;44.918;8.614;2023-02-11T03:51:08;41.63;;;17.65;;
77055;SDS011;67471;44.918;8.614;2023-02-11T03:54:15;40.63;;;18.42;;
77055;SDS011;67471;44.918;8.614;2023-02-11T03:57:25;35.05;;;16.80;;
77055;SDS011;67471;44.918;8.614;2023-02-11T04:00:30;35.42;;;16.65;;
77055;SDS011;67471;44.918;8.614;2023-02-11T04:03:35;32.47;;;16.70;;
77055;SDS011;67471;44.918;8.614;2023-02-11T04:06:39;35.85;;;16.90;;
77055;SDS011;67471;44.918;8.614;2023-02-11T04:09:43;34.75;;;17.83;;
77055;SDS011;67471;44.918;8.614;2023-02-11T04:12:47;36.42;;;18.75;;
77055;SDS011;67471;44.918;8.614;2023-02-11T04:15:51;35.28;;;17.13;;
77055;SDS011;67471;44.918;8.614;2023-02-11T04:18:55;35.97;;;18.10;;
77055;SDS011;67471;44.918;8.614;2023-02-11T04:21:59;37.38;;;17.00;;
77055;SDS011;67471;44.918;8.614;2023-02-11T04:25:04;33.92;;;16.08;;
77055;SDS011;67471;44.918;8.614;2023-02-11T04:28:08;33.90;;;17.63;;
77055;SDS011;67471;44.918;8.614;2023-02-11T04:31:12;39.75;;;17.52;;
77055;SDS011;67471;44.918;8.614;2023-02-11T04:34:16;35.30;;;17.38;;
77055;SDS011;67471;44.918;8.614;2023-02-11T04:37:20;35.33;;;18.80;;
77055;SDS011;67471;44.918;8.614;2023-02-11T04:40:24;39.17;;;20.00;;
77055;SDS011;67471;44.918;8.614;2023-02-11T04:43:28;43.58;;;18.15;;
77055;SDS011;67471;44.918;8.614;2023-02-11T04:46:31;35.95;;;19.48;;
77055;SDS011;67471;44.918;8.614;2023-02-11T04:49:35;35.05;;;17.20;;
77055;SDS011;67471;44.918;8.614;2023-02-11T04:52:39;35.45;;;16.75;;
77055;SDS011;67471;44.918;8.614;2023-02-11T04:55:43;40.17;;;17.10;;
77055;SDS011;67471;44.918;8.614;2023-02-11T04:58:47;35.25;;;16.83;;
77055;SDS011;67471;44.918;8.614;2023-02-11T05:01:51;37.85;;;18.30;;
77055;SDS011;67471;44.918;8.614;2023-02-11T05:04:55;34.70;;;16.52;;
77055;SDS011;67471;44.918;8.614;2023-02-11T05:07:59;36.58;;;18.88;;
77055;SDS011;67471;44.918;8.614;2023-02-11T05:11:03;40.20;;;18.02;;
77055;SDS011;67471;44.918;8.614;2023-02-11T05:14:07;37.78;;;17.30;;
77055;SDS011;67471;44.918;8.614;2023-02-11T05:17:11;35.25;;;15.95;;
77055;SDS011;67471;44.918;8.614;2023-02-11T05:20:15;40.78;;;16.58;;
77055;SDS011;67471;44.918;8.614;2023-02-11T05:23:19;35.75;;;16.63;;
77055;SDS011;67471;44.918;8.614;2023-02-11T05:26:22;36.85;;;16.92;;
77055;SDS011;67471;44.918;8.614;2023-02-11T05:29:26;40.63;;;17.35;;
77055;SDS011;67471;44.918;8.614;2023-02-11T05:32:30;36.92;;;17.33;;
77055;SDS011;67471;44.918;8.614;2023-02-11T05:35:34;31.42;;;15.32;;
77055;SDS011;67471;44.918;8.614;2023-02-11T05:38:38;36.17;;;16.27;;
77055;SDS011;67471;44.918;8.614;2023-02-11T05:41:42;37.10;;;16.42;;
77055;SDS011;67471;44.918;8.614;2023-02-11T05:44:46;37.85;;;16.90;;
77055;SDS011;67471;44.918;8.614;2023-02-11T05:47:50;33.42;;;15.30;;
77055;SDS011;67471;44.918;8.614;2023-02-11T05:50:54;37.25;;;18.02;;
77055;SDS011;67471;44.918;8.614;2023-02-11T05:53:58;40.25;;;18.00;;
77055;SDS011;67471;44.918;8.614;2023-02-11T05:57:02;35.15;;;17.63;;
77055;SDS011;67471;44.918;8.614;2023-02-11T06:00:06;35.00;;;18.40;;
77055;SDS011;67471;44.918;8.614;2023-02-11T06:03:16;37.28;;;17.13;;
77055;SDS011;67471;44.918;8.614;2023-02-11T06:06:19;36.80;;;17.35;;
77055;SDS011;67471;44.918;8.614;2023-02-11T06:09:23;33.95;;;17.70;;
77055;SDS011;67471;44.918;8.614;2023-02-11T06:12:27;36.25;;;17.70;;
77055;SDS011;67471;44.918;8.614;2023-02-11T06:15:31;34.60;;;17.25;;
77055;SDS011;67471;44.918;8.614;2023-02-11T06:18:35;40.35;;;17.65;;
77055;SDS011;67471;44.918;8.614;2023-02-11T06:21:39;36.38;;;16.65;;
77055;SDS011;67471;44.918;8.614;2023-02-11T06:24:42;41.60;;;19.40;;
77055;SDS011;67471;44.918;8.614;2023-02-11T06:27:46;38.22;;;18.05;;
77055;SDS011;67471;44.918;8.614;2023-02-11T06:30:50;39.13;;;18.15;;
77055;SDS011;67471;44.918;8.614;2023-02-11T06:33:53;37.88;;;17.95;;
77055;SDS011;67471;44.918;8.614;2023-02-11T06:36:57;38.55;;;19.13;;
77055;SDS011;67471;44.918;8.614;2023-02-11T06:40:01;39.20;;;18.73;;
77055;SDS011;67471;44.918;8.614;2023-02-11T06:43:05;36.95;;;18.77;;
77055;SDS011;67471;44.918;8.614;2023-02-11T06:46:09;42.60;;;18.33;;
77055;SDS011;67471;44.918;8.614;2023-02-11T06:49:13;33.20;;;17.25;;
77055;SDS011;67471;44.918;8.614;2023-02-11T06:52:16;36.72;;;17.75;;
77055;SDS011;67471;44.918;8.614;2023-02-11T06:55:20;39.15;;;17.17;;
77055;SDS011;67471;44.918;8.614;2023-02-11T06:58:24;34.47;;;18.02;;
77055;SDS011;67471;44.918;8.614;2023-02-11T07:01:28;35.85;;;18.25;;
77055;SDS011;67471;44.918;8.614;2023-02-11T07:04:31;38.42;;;18.80;;
77055;SDS011;67471;44.918;8.614;2023-02-11T07:07:35;40.53;;;18.83;;
77055;SDS011;67471;44.918;8.614;2023-02-11T07:10:40;35.45;;;16.23;;
77055;SDS011;67471;44.918;8.614;2023-02-11T07:13:44;35.58;;;16.58;;
77055;SDS011;67471;44.918;8.614;2023-02-11T07:16:48;41.33;;;18.67;;
77055;SDS011;67471;44.918;8.614;2023-02-11T07:19:52;38.28;;;17.48;;
77055;SDS011;67471;44.918;8.614;2023-02-11T07:22:56;39.42;;;18.38;;
77055;SDS011;67471;44.918;8.614;2023-02-11T07:26:01;40.72;;;19.67;;
77055;SDS011;67471;44.918;8.614;2023-02-11T07:29:06;38.28;;;19.85;;
77055;SDS011;67471;44.918;8.614;2023-02-11T07:32:10;41.30;;;20.17;;
77055;SDS011;67471;44.918;8.614;2023-02-11T07:35:14;43.80;;;21.50;;
77055;SDS011;67471;44.918;8.614;2023-02-11T07:38:17;42.00;;;22.25;;
77055;SDS011;67471;44.918;8.614;2023-02-11T07:41:22;44.50;;;20.88;;
77055;SDS011;67471;44.918;8.614;2023-02-11T07:44:26;38.03;;;21.50;;
77055;SDS011;67471;44.918;8.614;2023-02-11T07:47:30;43.38;;;23.33;;
77055;SDS011;67471;44.918;8.614;2023-02-11T07:50:34;44.40;;;24.17;;
77055;SDS011;67471;44.918;8.614;2023-02-11T07:53:37;39.10;;;23.92;;
77055;SDS011;67471;44.918;8.614;2023-02-11T07:56:41;41.42;;;24.58;;
77055;SDS011;67471;44.918;8.614;2023-02-11T07:59:45;39.13;;;23.73;;
77055;SDS011;67471;44.918;8.614;2023-02-11T08:02:49;43.95;;;26.70;;
77055;SDS011;67471;44.918;8.614;2023-02-11T08:05:53;42.17;;;25.67;;
77055;SDS011;67471;44.918;8.614;2023-02-11T08:08:57;40.65;;;25.40;;
77055;SDS011;67471;44.918;8.614;2023-02-11T08:12:05;40.88;;;25.38;;
77055;SDS011;67471;44.918;8.614;2023-02-11T08:15:09;39.05;;;25.02;;
77055;SDS011;67471;44.918;8.614;2023-02-11T08:18:12;41.90;;;25.05;;
77055;SDS011;67471;44.918;8.614;2023-02-11T08:21:17;39.25;;;24.13;;
77055;SDS011;67471;44.918;8.614;2023-02-11T08:24:21;40.28;;;24.67;;
77055;SDS011;67471;44.918;8.614;2023-02-11T08:27:25;43.20;;;24.55;;
77055;SDS011;67471;44.918;8.614;2023-02-11T08:30:29;43.50;;;27.10;;
77055;SDS011;67471;44.918;8.614;2023-02-11T08:33:33;45.17;;;25.58;;
77055;SDS011;67471;44.918;8.614;2023-02-11T08:36:37;41.70;;;25.30;;
77055;SDS011;67471;44.918;8.614;2023-02-11T08:39:41;42.70;;;25.75;;
77055;SDS011;67471;44.918;8.614;2023-02-11T08:42:45;45.65;;;26.13;;
77055;SDS011;67471;44.918;8.614;2023-02-11T08:45:49;42.17;;;26.67;;
77055;SDS011;67471;44.918;8.614;2023-02-11T08:48:53;53.45;;;31.63;;
77055;SDS011;67471;44.918;8.614;2023-02-11T08:51:56;46.22;;;27.50;;
77055;SDS011;67471;44.918;8.614;2023-02-11T08:55:04;48.20;;;31.40;;
77055;SDS011;67471;44.918;8.614;2023-02-11T08:58:09;46.90;;;29.63;;
77055;SDS011;67471;44.918;8.614;2023-02-11T09:01:23;40.50;;;25.63;;
77055;SDS011;67471;44.918;8.614;2023-02-11T09:04:29;43.35;;;26.40;;
77055;SDS011;67471;44.918;8.614;2023-02-11T09:07:33;46.28;;;28.77;;
77055;SDS011;67471;44.918;8.614;2023-02-11T09:10:37;41.72;;;27.10;;
77055;SDS011;67471;44.918;8.614;2023-02-11T09:13:43;41.20;;;26.23;;
77055;SDS011;67471;44.918;8.614;2023-02-11T09:16:47;40.63;;;25.80;;
77055;SDS011;67471;44.918;8.614;2023-02-11T09:19:52;41.70;;;25.52;;
77055;SDS011;67471;44.918;8.614;2023-02-11T09:22:57;42.80;;;24.75;;
77055;SDS011;67471;44.918;8.614;2023-02-11T09:26:44;36.83;;;24.70;;
77055;SDS011;67471;44.918;8.614;2023-02-11T09:29:30;39.05;;;25.52;;
77055;SDS011;67471;44.918;8.614;2023-02-11T09:32:34;43.88;;;25.30;;
77055;SDS011;67471;44.918;8.614;2023-02-11T09:35:38;42.10;;;28.63;;
77055;SDS011;67471;44.918;8.614;2023-02-11T09:38:42;41.63;;;26.30;;
77055;SDS011;67471;44.918;8.614;2023-02-11T09:42:03;37.90;;;24.17;;
77055;SDS011;67471;44.918;8.614;2023-02-11T09:45:26;36.78;;;22.30;;
77055;SDS011;67471;44.918;8.614;2023-02-11T09:48:36;45.63;;;28.98;;
77055;SDS011;67471;44.918;8.614;2023-02-11T09:51:49;48.28;;;27.52;;
77055;SDS011;67471;44.918;8.614;2023-02-11T09:54:58;47.38;;;27.65;;
77055;SDS011;67471;44.918;8.614;2023-02-11T09:58:06;43.63;;;25.55;;
77055;SDS011;67471;44.918;8.614;2023-02-11T10:04:48;40.40;;;23.45;;
77055;SDS011;67471;44.918;8.614;2023-02-11T10:25:36;39.22;;;22.33;;
77055;SDS011;67471;44.918;8.614;2023-02-11T10:28:42;41.75;;;22.88;;
77055;SDS011;67471;44.918;8.614;2023-02-11T10:31:48;41.95;;;23.70;;
77055;SDS011;67471;44.918;8.614;2023-02-11T10:34:55;40.25;;;22.73;;
77055;SDS011;67471;44.918;8.614;2023-02-11T10:38:04;39.50;;;23.33;;
77055;SDS011;67471;44.918;8.614;2023-02-11T10:41:09;36.75;;;20.60;;
77055;SDS011;67471;44.918;8.614;2023-02-11T10:44:21;37.35;;;23.13;;
77055;SDS011;67471;44.918;8.614;2023-02-11T10:47:29;41.10;;;23.25;;
77055;SDS011;67471;44.918;8.614;2023-02-11T10:50:36;58.40;;;30.27;;
77055;SDS011;67471;44.918;8.614;2023-02-11T10:53:40;42.15;;;24.25;;
77055;SDS011;67471;44.918;8.614;2023-02-11T10:56:45;41.42;;;23.02;;
77055;SDS011;67471;44.918;8.614;2023-02-11T10:59:55;39.85;;;21.88;;
77055;SDS011;67471;44.918;8.614;2023-02-11T11:03:03;33.55;;;20.38;;
77055;SDS011;67471;44.918;8.614;2023-02-11T11:06:09;39.95;;;21.95;;
77055;SDS011;67471;44.918;8.614;2023-02-11T11:09:25;32.75;;;19.90;;
77055;SDS011;67471;44.918;8.614;2023-02-11T11:12:46;33.38;;;18.80;;
77055;SDS011;67471;44.918;8.614;2023-02-11T11:16:05;37.13;;;20.60;;
77055;SDS011;67471;44.918;8.614;2023-02-11T11:19:19;37.95;;;20.55;;
77055;SDS011;67471;44.918;8.614;2023-02-11T11:22:25;34.45;;;19.83;;
77055;SDS011;67471;44.918;8.614;2023-02-11T11:25:29;31.33;;;17.52;;
77055;SDS011;67471;44.918;8.614;2023-02-11T11:28:38;27.10;;;16.00;;
77055;SDS011;67471;44.918;8.614;2023-02-11T11:35:16;29.13;;;14.68;;
77055;SDS011;67471;44.918;8.614;2023-02-11T11:38:26;26.85;;;15.65;;
77055;SDS011;67471;44.918;8.614;2023-02-11T11:41:32;27.20;;;16.05;;
77055;SDS011;67471;44.918;8.614;2023-02-11T11:44:37;30.20;;;16.58;;
77055;SDS011;67471;44.918;8.614;2023-02-11T11:51:07;27.13;;;15.90;;
77055;SDS011;67471;44.918;8.614;2023-02-11T11:54:14;26.63;;;16.15;;
77055;SDS011;67471;44.918;8.614;2023-02-11T11:57:24;26.42;;;14.40;;
77055;SDS011;67471;44.918;8.614;2023-02-11T12:10:18;23.83;;;14.73;;
77055;SDS011;67471;44.918;8.614;2023-02-11T12:20:16;24.67;;;15.10;;
77055;SDS011;67471;44.918;8.614;2023-02-11T12:23:28;28.52;;;16.52;;
77055;SDS011;67471;44.918;8.614;2023-02-11T12:40:14;31.02;;;16.80;;
77055;SDS011;67471;44.918;8.614;2023-02-11T12:46:56;29.20;;;16.88;;
77055;SDS011;67471;44.918;8.614;2023-02-11T12:56:58;25.25;;;17.45;;
77055;SDS011;67471;44.918;8.614;2023-02-11T13:00:07;32.97;;;17.50;;
77055;SDS011;67471;44.918;8.614;2023-02-11T13:03:21;27.67;;;16.30;;
77055;SDS011;67471;44.918;8.614;2023-02-11T13:06:33;29.63;;;18.45;;
77055;SDS011;67471;44.918;8.614;2023-02-11T13:09:54;29.98;;;16.05;;
77055;SDS011;67471;44.918;8.614;2023-02-11T13:13:10;26.63;;;14.68;;
77055;SDS011;67471;44.918;8.614;2023-02-11T13:19:51;26.98;;;16.00;;
77055;SDS011;67471;44.918;8.614;2023-02-11T13:23:04;27.58;;;16.73;;
77055;SDS011;67471;44.918;8.614;2023-02-11T13:33:37;26.58;;;15.27;;
77055;SDS011;67471;44.918;8.614;2023-02-11T13:36:48;23.65;;;14.68;;
77055;SDS011;67471;44.918;8.614;2023-02-11T13:39:57;28.90;;;14.63;;
77055;SDS011;67471;44.918;8.614;2023-02-11T13:43:02;22.73;;;13.98;;
77055;SDS011;67471;44.918;8.614;2023-02-11T13:46:11;23.23;;;14.57;;
77055;SDS011;67471;44.918;8.614;2023-02-11T13:49:19;24.27;;;14.48;;
77055;SDS011;67471;44.918;8.614;2023-02-11T13:52:32;25.50;;;13.88;;
77055;SDS011;67471;44.918;8.614;2023-02-11T13:55:42;23.35;;;14.43;;
77055;SDS011;67471;44.918;8.614;2023-02-11T13:58:48;27.27;;;14.13;;
77055;SDS011;67471;44.918;8.614;2023-02-11T14:02:36;24.90;;;14.35;;
77055;SDS011;67471;44.918;8.614;2023-02-11T14:06:09;23.85;;;15.05;;
77055;SDS011;67471;44.918;8.614;2023-02-11T14:09:37;25.33;;;13.93;;
77055;SDS011;67471;44.918;8.614;2023-02-11T14:12:42;28.15;;;14.20;;
77055;SDS011;67471;44.918;8.614;2023-02-11T14:15:46;22.83;;;13.75;;
77055;SDS011;67471;44.918;8.614;2023-02-11T14:21:54;23.13;;;13.40;;
77055;SDS011;67471;44.918;8.614;2023-02-11T14:25:21;19.45;;;11.30;;
77055;SDS011;67471;44.918;8.614;2023-02-11T14:28:27;20.70;;;12.10;;
77055;SDS011;67471;44.918;8.614;2023-02-11T14:38:38;18.40;;;12.60;;
77055;SDS011;67471;44.918;8.614;2023-02-11T14:41:48;16.33;;;10.38;;
77055;SDS011;67471;44.918;8.614;2023-02-11T14:44:57;19.73;;;11.07;;
77055;SDS011;67471;44.918;8.614;2023-02-11T14:48:17;18.10;;;9.43;;
77055;SDS011;67471;44.918;8.614;2023-02-11T14:51:25;16.58;;;10.10;;
77055;SDS011;67471;44.918;8.614;2023-02-11T14:54:33;15.75;;;9.88;;
77055;SDS011;67471;44.918;8.614;2023-02-11T14:57:37;16.95;;;9.50;;
77055;SDS011;67471;44.918;8.614;2023-02-11T15:04:14;17.65;;;10.40;;
77055;SDS011;67471;44.918;8.614;2023-02-11T15:07:26;15.82;;;9.80;;
77055;SDS011;67471;44.918;8.614;2023-02-11T15:10:51;19.60;;;11.48;;
77055;SDS011;67471;44.918;8.614;2023-02-11T15:13:56;22.52;;;10.88;;
77055;SDS011;67471;44.918;8.614;2023-02-11T15:17:03;19.25;;;12.13;;
77055;SDS011;67471;44.918;8.614;2023-02-11T15:20:28;20.33;;;11.80;;
77055;SDS011;67471;44.918;8.614;2023-02-11T15:23:35;20.23;;;11.02;;
77055;SDS011;67471;44.918;8.614;2023-02-11T15:26:42;20.92;;;12.43;;
77055;SDS011;67471;44.918;8.614;2023-02-11T15:29:47;20.15;;;12.50;;
77055;SDS011;67471;44.918;8.614;2023-02-11T15:33:19;20.45;;;11.98;;
77055;SDS011;67471;44.918;8.614;2023-02-11T15:36:24;18.00;;;11.05;;
77055;SDS011;67471;44.918;8.614;2023-02-11T15:39:37;18.42;;;10.10;;
77055;SDS011;67471;44.918;8.614;2023-02-11T15:42:59;17.83;;;9.55;;
77055;SDS011;67471;44.918;8.614;2023-02-11T15:46:06;16.05;;;9.40;;
77055;SDS011;67471;44.918;8.614;2023-02-11T15:49:13;23.50;;;11.07;;
77055;SDS011;67471;44.918;8.614;2023-02-11T15:52:23;16.98;;;10.95;;
77055;SDS011;67471;44.918;8.614;2023-02-11T15:55:28;20.63;;;10.48;;
77055;SDS011;67471;44.918;8.614;2023-02-11T15:58:38;19.45;;;9.63;;
77055;SDS011;67471;44.918;8.614;2023-02-11T16:01:44;19.13;;;11.35;;
77055;SDS011;67471;44.918;8.614;2023-02-11T16:04:53;23.02;;;14.25;;
77055;SDS011;67471;44.918;8.614;2023-02-11T16:07:59;25.75;;;13.45;;
77055;SDS011;67471;44.918;8.614;2023-02-11T16:11:22;19.25;;;11.80;;
77055;SDS011;67471;44.918;8.614;2023-02-11T16:17:38;21.73;;;11.68;;
77055;SDS011;67471;44.918;8.614;2023-02-11T16:20:45;19.15;;;10.45;;
77055;SDS011;67471;44.918;8.614;2023-02-11T16:23:52;18.63;;;10.15;;
77055;SDS011;67471;44.918;8.614;2023-02-11T16:26:57;17.65;;;10.65;;
77055;SDS011;67471;44.918;8.614;2023-02-11T16:30:04;21.20;;;11.32;;
77055;SDS011;67471;44.918;8.614;2023-02-11T16:33:10;21.73;;;11.70;;
77055;SDS011;67471;44.918;8.614;2023-02-11T16:36:14;24.38;;;13.00;;
77055;SDS011;67471;44.918;8.614;2023-02-11T16:39:22;17.92;;;10.73;;
77055;SDS011;67471;44.918;8.614;2023-02-11T16:42:25;16.75;;;10.27;;
77055;SDS011;67471;44.918;8.614;2023-02-11T16:45:29;21.65;;;12.45;;
77055;SDS011;67471;44.918;8.614;2023-02-11T16:48:33;21.02;;;12.50;;
77055;SDS011;67471;44.918;8.614;2023-02-11T16:51:38;20.70;;;10.35;;
77055;SDS011;67471;44.918;8.614;2023-02-11T16:54:44;18.17;;;10.40;;
77055;SDS011;67471;44.918;8.614;2023-02-11T16:57:47;22.98;;;12.23;;
77055;SDS011;67471;44.918;8.614;2023-02-11T17:00:51;20.88;;;12.27;;
77055;SDS011;67471;44.918;8.614;2023-02-11T17:03:56;20.75;;;11.50;;
77055;SDS011;67471;44.918;8.614;2023-02-11T17:07:00;27.40;;;12.52;;
77055;SDS011;67471;44.918;8.614;2023-02-11T17:10:05;25.38;;;12.80;;
77055;SDS011;67471;44.918;8.614;2023-02-11T17:13:16;25.63;;;13.23;;
77055;SDS011;67471;44.918;8.614;2023-02-11T17:16:21;26.10;;;13.43;;
77055;SDS011;67471;44.918;8.614;2023-02-11T17:19:27;26.00;;;14.10;;
77055;SDS011;67471;44.918;8.614;2023-02-11T17:22:31;26.13;;;13.50;;
77055;SDS011;67471;44.918;8.614;2023-02-11T17:25:35;24.17;;;12.73;;
77055;SDS011;67471;44.918;8.614;2023-02-11T17:28:39;24.13;;;12.38;;
77055;SDS011;67471;44.918;8.614;2023-02-11T17:31:43;23.33;;;13.32;;
77055;SDS011;67471;44.918;8.614;2023-02-11T17:34:47;23.63;;;12.85;;
77055;SDS011;67471;44.918;8.614;2023-02-11T17:37:51;28.15;;;13.23;;
77055;SDS011;67471;44.918;8.614;2023-02-11T17:40:55;24.55;;;13.82;;
77055;SDS011;67471;44.918;8.614;2023-02-11T17:44:02;25.67;;;12.88;;
77055;SDS011;67471;44.918;8.614;2023-02-11T17:47:07;23.02;;;13.40;;
77055;SDS011;67471;44.918;8.614;2023-02-11T17:50:11;23.58;;;12.85;;
77055;SDS011;67471;44.918;8.614;2023-02-11T17:53:14;24.17;;;13.20;;
77055;SDS011;67471;44.918;8.614;2023-02-11T17:56:19;28.48;;;13.10;;
77055;SDS011;67471;44.918;8.614;2023-02-11T17:59:27;28.45;;;14.40;;
77055;SDS011;67471;44.918;8.614;2023-02-11T18:02:37;25.35;;;13.65;;
77055;SDS011;67471;44.918;8.614;2023-02-11T18:05:59;26.83;;;14.77;;
77055;SDS011;67471;44.918;8.614;2023-02-11T18:09:03;25.27;;;13.90;;
77055;SDS011;67471;44.918;8.614;2023-02-11T18:12:08;26.42;;;15.10;;
77055;SDS011;67471;44.918;8.614;2023-02-11T18:15:13;36.55;;;17.33;;
77055;SDS011;67471;44.918;8.614;2023-02-11T18:18:16;30.88;;;17.15;;
77055;SDS011;67471;44.918;8.614;2023-02-11T18:21:20;27.38;;;15.65;;
77055;SDS011;67471;44.918;8.614;2023-02-11T18:24:25;34.75;;;17.80;;
77055;SDS011;67471;44.918;8.614;2023-02-11T18:27:29;34.75;;;20.27;;
77055;SDS011;67471;44.918;8.614;2023-02-11T18:30:33;50.65;;;21.48;;
77055;SDS011;67471;44.918;8.614;2023-02-11T18:33:42;34.95;;;18.63;;
77055;SDS011;67471;44.918;8.614;2023-02-11T18:36:54;39.78;;;20.25;;
77055;SDS011;67471;44.918;8.614;2023-02-11T18:39:59;36.80;;;18.27;;
77055;SDS011;67471;44.918;8.614;2023-02-11T18:43:03;31.63;;;18.45;;
77055;SDS011;67471;44.918;8.614;2023-02-11T18:46:09;36.45;;;17.25;;
77055;SDS011;67471;44.918;8.614;2023-02-11T18:49:15;36.30;;;17.77;;
77055;SDS011;67471;44.918;8.614;2023-02-11T18:52:21;41.17;;;19.52;;
77055;SDS011;67471;44.918;8.614;2023-02-11T18:55:25;34.75;;;18.75;;
77055;SDS011;67471;44.918;8.614;2023-02-11T18:58:32;35.83;;;18.30;;
77055;SDS011;67471;44.918;8.614;2023-02-11T19:01:36;36.03;;;17.58;;
77055;SDS011;67471;44.918;8.614;2023-02-11T19:04:43;39.25;;;20.88;;
77055;SDS011;67471;44.918;8.614;2023-02-11T19:07:46;37.33;;;20.02;;
77055;SDS011;67471;44.918;8.614;2023-02-11T19:10:50;40.10;;;20.13;;
77055;SDS011;67471;44.918;8.614;2023-02-11T19:13:57;37.60;;;21.77;;
77055;SDS011;67471;44.918;8.614;2023-02-11T19:17:26;44.58;;;20.10;;
77055;SDS011;67471;44.918;8.614;2023-02-11T19:20:30;40.00;;;21.05;;
77055;SDS011;67471;44.918;8.614;2023-02-11T19:23:38;33.67;;;19.98;;
77055;SDS011;67471;44.918;8.614;2023-02-11T19:26:42;35.80;;;19.23;;
77055;SDS011;67471;44.918;8.614;2023-02-11T19:29:46;33.63;;;18.73;;
77055;SDS011;67471;44.918;8.614;2023-02-11T19:32:50;33.20;;;17.73;;
77055;SDS011;67471;44.918;8.614;2023-02-11T19:36:00;33.67;;;18.77;;
77055;SDS011;67471;44.918;8.614;2023-02-11T19:39:05;39.58;;;19.20;;
77055;SDS011;67471;44.918;8.614;2023-02-11T19:42:09;35.75;;;19.50;;
77055;SDS011;67471;44.918;8.614;2023-02-11T19:45:13;36.92;;;20.08;;
77055;SDS011;67471;44.918;8.614;2023-02-11T19:48:17;38.58;;;20.05;;
77055;SDS011;67471;44.918;8.614;2023-02-11T19:51:21;38.33;;;18.85;;
77055;SDS011;67471;44.918;8.614;2023-02-11T19:54:25;41.85;;;19.63;;
77055;SDS011;67471;44.918;8.614;2023-02-11T19:57:31;39.85;;;21.10;;
77055;SDS011;67471;44.918;8.614;2023-02-11T20:00:41;42.08;;;19.35;;
77055;SDS011;67471;44.918;8.614;2023-02-11T20:03:47;35.67;;;19.65;;
77055;SDS011;67471;44.918;8.614;2023-02-11T20:06:52;42.08;;;21.67;;
77055;SDS011;67471;44.918;8.614;2023-02-11T20:09:55;46.40;;;23.40;;
77055;SDS011;67471;44.918;8.614;2023-02-11T20:13:02;40.08;;;20.98;;
77055;SDS011;67471;44.918;8.614;2023-02-11T20:16:07;39.47;;;21.63;;
77055;SDS011;67471;44.918;8.614;2023-02-11T20:19:15;47.05;;;22.23;;
77055;SDS011;67471;44.918;8.614;2023-02-11T20:22:24;42.50;;;21.20;;